Time;durP1;ratioP1;P1;durP2;ratioP2;P2;SDS_P1;SDS_P2;PMS_P1;PMS_P2;Temp;Humidity;BMP_temperature;BMP_pressure;BME280_temperature;BME280_humidity;BME280_pressure;Samples;Min_cycle;Max_cycle;Signal;HPM_P1;HPM_P2
2022/05/24 00:02:14;;;;;;;5.22;2.78;;;;;;;;;;5062112;28;20083;-61
2022/05/24 00:04:40;;;;;;;4.63;2.42;;;;;;;;;;5053678;28;20519;-61
2022/05/24 00:07:06;;;;;;;4.40;2.55;;;;;;;;;;5055462;28;20466;-61
2022/05/24 00:09:32;;;;;;;5.13;2.60;;;;;;;;;;5066065;28;20044;-61
2022/05/24 00:11:58;;;;;;;5.60;2.40;;;;;;;;;;5066168;28;20448;-62
2022/05/24 00:17:26;;;;;;;4.10;2.55;;;;;;;;;;5000471;28;20081;-61
2022/05/24 00:19:54;;;;;;;5.03;2.17;;;;;;;;;;5053874;28;20048;-62
2022/05/24 00:22:20;;;;;;;4.72;2.42;;;;;;;;;;5066794;28;20017;-62
2022/05/24 00:24:46;;;;;;;5.05;2.63;;;;;;;;;;5057459;28;20048;-61
2022/05/24 00:27:12;;;;;;;4.95;2.25;;;;;;;;;;5054429;28;20021;-61
2022/05/24 00:29:38;;;;;;;4.60;2.05;;;;;;;;;;5060765;28;20082;-61
2022/05/24 00:32:04;;;;;;;5.88;2.80;;;;;;;;;;5065583;28;20523;-61
2022/05/24 00:34:30;;;;;;;6.43;2.65;;;;;;;;;;5069642;28;20609;-62
2022/05/24 00:36:56;;;;;;;5.63;2.92;;;;;;;;;;5069199;28;20104;-60
2022/05/24 00:39:22;;;;;;;5.35;2.65;;;;;;;;;;5059254;28;20067;-61
2022/05/24 00:41:55;;;;;;;4.25;2.40;;;;;;;;;;5070922;28;20029;-61
2022/05/24 00:44:24;;;;;;;6.47;2.72;;;;;;;;;;5062889;28;20116;-61
2022/05/24 00:47:05;;;;;;;6.05;2.58;;;;;;;;;;5064814;28;20115;-61
2022/05/24 00:49:38;;;;;;;7.13;2.15;;;;;;;;;;5062472;28;20020;-61
2022/05/24 00:52:09;;;;;;;5.63;2.30;;;;;;;;;;5050606;28;20036;-61
2022/05/24 00:54:36;;;;;;;4.57;2.67;;;;;;;;;;5062354;28;20552;-62
2022/05/24 00:57:07;;;;;;;4.97;3.15;;;;;;;;;;5050302;28;20112;-61
2022/05/24 00:59:45;;;;;;;4.57;2.60;;;;;;;;;;5062262;28;20016;-61
2022/05/24 01:02:11;;;;;;;5.68;2.80;;;;;;;;;;5051645;28;20128;-62
2022/05/24 01:04:38;;;;;;;5.07;2.78;;;;;;;;;;5065641;28;20041;-61
2022/05/24 01:07:04;;;;;;;7.20;3.03;;;;;;;;;;5049976;28;20017;-62
2022/05/24 01:09:45;;;;;;;6.22;2.83;;;;;;;;;;5060262;28;20029;-62
2022/05/24 01:12:16;;;;;;;5.13;2.63;;;;;;;;;;5057103;28;20778;-62
2022/05/24 01:14:42;;;;;;;6.35;2.83;;;;;;;;;;5062681;28;20033;-61
2022/05/24 01:17:08;;;;;;;6.20;2.70;;;;;;;;;;5050164;28;20029;-61
2022/05/24 01:19:36;;;;;;;6.40;3.10;;;;;;;;;;5057626;28;20020;-61
2022/05/24 01:22:09;;;;;;;8.15;2.90;;;;;;;;;;5054484;28;20033;-60
2022/05/24 01:24:39;;;;;;;4.68;2.55;;;;;;;;;;5056399;28;20060;-60
2022/05/24 01:27:06;;;;;;;4.15;2.63;;;;;;;;;;5055065;28;20036;-62
2022/05/24 01:29:32;;;;;;;4.65;2.92;;;;;;;;;;5053952;28;20107;-62
2022/05/24 01:37:30;;;;;;;6.95;2.95;;;;;;;;;;5054846;28;20040;-62
2022/05/24 01:39:57;;;;;;;4.85;2.95;;;;;;;;;;5056276;28;20096;-62
2022/05/24 01:42:24;;;;;;;6.07;3.22;;;;;;;;;;5056034;28;20083;-62
2022/05/24 01:44:51;;;;;;;6.50;3.40;;;;;;;;;;5054090;28;20028;-61
2022/05/24 01:47:17;;;;;;;5.25;3.20;;;;;;;;;;5064864;28;20103;-61
2022/05/24 01:49:46;;;;;;;6.20;3.10;;;;;;;;;;5068149;28;20020;-62
2022/05/24 01:52:19;;;;;;;5.22;2.65;;;;;;;;;;5058524;28;20035;-62
2022/05/24 01:54:47;;;;;;;6.10;3.10;;;;;;;;;;5068546;28;20592;-63
2022/05/24 01:57:16;;;;;;;4.82;2.90;;;;;;;;;;5058756;28;20029;-62
2022/05/24 01:59:45;;;;;;;5.53;3.42;;;;;;;;;;5068554;28;20554;-62
2022/05/24 02:02:11;;;;;;;6.47;3.00;;;;;;;;;;5060678;28;20585;-62
2022/05/24 02:04:37;;;;;;;6.80;3.33;;;;;;;;;;5049397;28;20044;-62
2022/05/24 02:07:08;;;;;;;6.57;3.28;;;;;;;;;;5065036;28;20051;-62
2022/05/24 02:09:35;;;;;;;5.80;2.95;;;;;;;;;;5069375;28;20474;-62
2022/05/24 02:12:03;;;;;;;5.43;3.33;;;;;;;;;;5063292;28;20484;-61
2022/05/24 02:14:35;;;;;;;6.68;3.33;;;;;;;;;;5049816;28;20021;-62
2022/05/24 02:17:04;;;;;;;5.47;3.63;;;;;;;;;;5062016;28;20108;-62
2022/05/24 02:19:32;;;;;;;6.30;3.38;;;;;;;;;;5049330;28;20040;-62
2022/05/24 02:22:01;;;;;;;7.80;3.38;;;;;;;;;;5054230;28;20476;-62
2022/05/24 02:24:27;;;;;;;7.43;3.53;;;;;;;;;;5067770;28;20101;-62
2022/05/24 02:26:54;;;;;;;6.47;3.00;;;;;;;;;;5060558;28;20025;-62
2022/05/24 02:29:22;;;;;;;5.95;3.28;;;;;;;;;;5065720;28;20060;-62
2022/05/24 02:31:48;;;;;;;7.07;3.03;;;;;;;;;;5062374;28;20052;-62
2022/05/24 02:34:14;;;;;;;5.88;3.40;;;;;;;;;;5063603;28;20549;-62
2022/05/24 02:36:41;;;;;;;5.15;3.00;;;;;;;;;;5065262;28;20025;-62
2022/05/24 02:39:07;;;;;;;7.13;3.40;;;;;;;;;;5061647;28;20124;-61
2022/05/24 02:41:36;;;;;;;5.38;3.20;;;;;;;;;;5068811;28;20816;-62
2022/05/24 02:44:04;;;;;;;5.85;3.38;;;;;;;;;;5063250;28;20060;-62
2022/05/24 02:46:31;;;;;;;6.57;3.50;;;;;;;;;;5054163;28;20048;-62
2022/05/24 02:48:58;;;;;;;5.88;3.40;;;;;;;;;;5064500;28;20054;-61
2022/05/24 02:51:24;;;;;;;5.75;3.00;;;;;;;;;;5052943;28;20116;-62
2022/05/24 02:53:50;;;;;;;7.25;3.33;;;;;;;;;;5061425;28;20487;-62
2022/05/24 02:56:16;;;;;;;4.95;3.10;;;;;;;;;;5072236;28;20055;-61
2022/05/24 02:58:42;;;;;;;5.53;3.15;;;;;;;;;;5059957;28;20033;-62
2022/05/24 03:01:13;;;;;;;4.70;2.67;;;;;;;;;;5073116;28;20028;-63
2022/05/24 03:03:39;;;;;;;5.05;2.80;;;;;;;;;;5060093;28;20040;-62
2022/05/24 03:06:05;;;;;;;5.65;2.90;;;;;;;;;;5072697;28;20467;-61
2022/05/24 03:11:16;;;;;;;4.70;2.40;;;;;;;;;;5052750;28;20035;-62
2022/05/24 03:16:27;;;;;;;4.32;2.83;;;;;;;;;;5071224;28;20042;-61
2022/05/24 03:18:53;;;;;;;4.85;2.83;;;;;;;;;;5061584;28;20025;-62
2022/05/24 03:21:19;;;;;;;8.55;2.92;;;;;;;;;;5070885;28;20382;-61
2022/05/24 03:23:45;;;;;;;6.40;2.90;;;;;;;;;;5063498;28;20026;-62
2022/05/24 03:26:11;;;;;;;5.53;3.20;;;;;;;;;;5052465;28;20068;-62
2022/05/24 03:28:38;;;;;;;42.60;3.75;;;;;;;;;;5057368;28;20549;-61
2022/05/24 03:31:05;;;;;;;7.18;2.60;;;;;;;;;;5072428;28;20028;-62
2022/05/24 03:33:32;;;;;;;4.32;2.90;;;;;;;;;;5066599;28;20056;-62
2022/05/24 03:35:58;;;;;;;6.28;3.08;;;;;;;;;;5060283;28;20045;-62
2022/05/24 03:38:24;;;;;;;6.55;2.58;;;;;;;;;;5052780;28;20563;-62
2022/05/24 03:40:50;;;;;;;4.65;2.67;;;;;;;;;;5063125;28;20024;-62
2022/05/24 03:43:16;;;;;;;4.32;2.83;;;;;;;;;;5052883;28;20028;-62
2022/05/24 03:45:42;;;;;;;4.70;2.55;;;;;;;;;;5060630;28;20035;-62
2022/05/24 03:48:09;;;;;;;4.53;2.00;;;;;;;;;;5070791;28;20074;-62
2022/05/24 03:50:35;;;;;;;5.53;2.38;;;;;;;;;;5056829;28;20021;-62
2022/05/24 03:53:01;;;;;;;4.82;2.63;;;;;;;;;;5069556;28;20391;-62
2022/05/24 03:55:27;;;;;;;5.22;3.25;;;;;;;;;;5063196;28;20113;-60
2022/05/24 03:58:02;;;;;;;5.80;2.55;;;;;;;;;;5050307;28;20063;-61
2022/05/24 04:00:29;;;;;;;5.57;2.45;;;;;;;;;;5061980;28;20024;-61
2022/05/24 04:02:56;;;;;;;5.95;2.22;;;;;;;;;;5070357;28;20025;-62
2022/05/24 04:05:22;;;;;;;4.13;2.38;;;;;;;;;;5060572;28;20036;-62
2022/05/24 04:07:49;;;;;;;5.63;2.58;;;;;;;;;;5069420;28;20066;-63
2022/05/24 04:10:16;;;;;;;4.97;2.55;;;;;;;;;;5062793;28;20083;-63
2022/05/24 04:12:42;;;;;;;4.20;2.53;;;;;;;;;;5063464;28;20024;-63
2022/05/24 04:15:09;;;;;;;5.40;2.20;;;;;;;;;;5060265;28;20017;-62
2022/05/24 04:17:35;;;;;;;5.38;2.40;;;;;;;;;;5062148;28;20128;-63
2022/05/24 04:20:01;;;;;;;5.78;2.67;;;;;;;;;;5062674;28;20123;-62
2022/05/24 04:22:27;;;;;;;6.53;2.80;;;;;;;;;;5062219;28;20058;-63
2022/05/24 04:24:53;;;;;;;6.40;2.28;;;;;;;;;;5062612;28;20059;-62
2022/05/24 04:27:19;;;;;;;9.73;2.90;;;;;;;;;;5063632;28;20542;-62
2022/05/24 04:29:45;;;;;;;5.47;2.67;;;;;;;;;;5061412;28;20178;-63
2022/05/24 04:32:11;;;;;;;5.60;2.03;;;;;;;;;;5056555;28;20025;-61
2022/05/24 04:34:38;;;;;;;5.28;2.25;;;;;;;;;;5061372;28;20449;-62
2022/05/24 04:37:07;;;;;;;5.75;2.50;;;;;;;;;;5061895;28;20021;-62
2022/05/24 04:39:34;;;;;;;7.10;2.83;;;;;;;;;;5061908;28;20120;-62
2022/05/24 04:44:44;;;;;;;4.68;2.28;;;;;;;;;;5062171;28;20101;-62
2022/05/24 04:47:10;;;;;;;5.00;2.38;;;;;;;;;;5062185;28;20024;-63
2022/05/24 04:49:37;;;;;;;7.57;2.63;;;;;;;;;;5059648;28;20040;-63
2022/05/24 04:52:04;;;;;;;4.63;2.17;;;;;;;;;;5060825;28;20111;-62
2022/05/24 04:54:30;;;;;;;4.05;2.28;;;;;;;;;;5062384;28;20127;-62
2022/05/24 04:56:57;;;;;;;3.90;1.92;;;;;;;;;;5063335;28;20033;-63
2022/05/24 04:59:23;;;;;;;4.85;2.45;;;;;;;;;;5063277;28;20545;-62
2022/05/24 05:01:52;;;;;;;4.32;2.22;;;;;;;;;;5062722;28;20028;-64
2022/05/24 05:04:19;;;;;;;3.80;2.17;;;;;;;;;;5062798;28;20043;-63
2022/05/24 05:06:47;;;;;;;4.47;2.10;;;;;;;;;;5062411;28;20501;-64
2022/05/24 05:09:13;;;;;;;4.28;2.17;;;;;;;;;;5062611;28;20024;-63
2022/05/24 05:11:40;;;;;;;6.10;2.20;;;;;;;;;;5060933;28;20115;-63
2022/05/24 05:14:07;;;;;;;11.57;3.78;;;;;;;;;;5061894;28;20078;-63
2022/05/24 05:16:36;;;;;;;14.75;5.38;;;;;;;;;;5062419;28;20464;-62
2022/05/24 05:19:02;;;;;;;14.45;6.40;;;;;;;;;;5060275;28;20433;-63
2022/05/24 05:21:31;;;;;;;17.90;6.82;;;;;;;;;;5061348;28;20111;-62
2022/05/24 05:23:58;;;;;;;14.30;6.78;;;;;;;;;;5059942;28;20081;-62
2022/05/24 05:26:24;;;;;;;21.75;7.85;;;;;;;;;;5060715;28;20443;-62
2022/05/24 05:28:51;;;;;;;16.73;8.10;;;;;;;;;;5061317;28;20386;-62
2022/05/24 05:31:17;;;;;;;17.00;6.85;;;;;;;;;;5058762;28;20028;-62
2022/05/24 05:33:43;;;;;;;13.65;6.82;;;;;;;;;;5059339;28;20040;-61
2022/05/24 05:36:09;;;;;;;14.43;7.47;;;;;;;;;;5060824;28;20053;-63
2022/05/24 05:38:35;;;;;;;28.55;8.55;;;;;;;;;;5060840;28;20070;-62
2022/05/24 05:41:01;;;;;;;18.40;7.95;;;;;;;;;;5061287;28;20025;-63
2022/05/24 05:43:28;;;;;;;12.88;7.03;;;;;;;;;;5058848;28;20475;-62
2022/05/24 05:45:54;;;;;;;20.05;7.55;;;;;;;;;;5061622;28;20036;-62
2022/05/24 05:48:21;;;;;;;17.88;7.35;;;;;;;;;;5061152;28;20024;-62
2022/05/24 05:50:48;;;;;;;19.90;8.05;;;;;;;;;;5060063;28;20036;-62
2022/05/24 05:53:14;;;;;;;29.77;7.82;;;;;;;;;;5059387;28;20473;-62
2022/05/24 05:55:41;;;;;;;19.33;7.65;;;;;;;;;;5060540;28;21362;-62
2022/05/24 05:58:07;;;;;;;16.20;7.68;;;;;;;;;;5059878;28;20441;-63
2022/05/24 06:00:34;;;;;;;16.27;7.28;;;;;;;;;;5061314;28;20032;-62
2022/05/24 06:03:00;;;;;;;9.23;6.57;;;;;;;;;;5060308;28;20033;-62
2022/05/24 06:05:26;;;;;;;14.90;6.45;;;;;;;;;;5060981;28;20041;-62
2022/05/24 06:07:54;;;;;;;15.90;7.78;;;;;;;;;;5061265;28;20614;-62
2022/05/24 06:10:20;;;;;;;16.42;6.15;;;;;;;;;;5060660;28;20108;-62
2022/05/24 06:12:47;;;;;;;29.45;9.20;;;;;;;;;;5060123;28;20491;-62
2022/05/24 06:15:13;;;;;;;16.15;6.72;;;;;;;;;;5061641;28;20111;-62
2022/05/24 06:17:46;;;;;;;20.67;8.38;;;;;;;;;;5064044;28;20553;-62
2022/05/24 06:20:12;;;;;;;23.38;9.18;;;;;;;;;;5061065;28;20064;-62
2022/05/24 06:22:39;;;;;;;24.83;7.78;;;;;;;;;;5064241;28;20462;-62
2022/05/24 06:25:05;;;;;;;32.08;8.43;;;;;;;;;;5063855;28;20711;-62
2022/05/24 06:27:31;;;;;;;26.75;8.20;;;;;;;;;;5063366;28;20055;-62
2022/05/24 06:29:57;;;;;;;34.95;9.25;;;;;;;;;;5062905;28;20576;-64
2022/05/24 06:32:23;;;;;;;24.25;7.55;;;;;;;;;;5063399;28;20024;-62
2022/05/24 06:34:52;;;;;;;26.98;7.50;;;;;;;;;;5062587;28;20105;-62
2022/05/24 06:37:21;;;;;;;33.42;8.70;;;;;;;;;;5063981;28;20040;-62
2022/05/24 06:39:47;;;;;;;25.80;6.87;;;;;;;;;;5063432;28;20033;-62
2022/05/24 06:42:14;;;;;;;23.42;6.10;;;;;;;;;;5064628;28;20028;-62
2022/05/24 06:44:40;;;;;;;19.15;7.03;;;;;;;;;;5063038;28;20072;-61
2022/05/24 06:47:06;;;;;;;20.92;8.00;;;;;;;;;;5063794;28;20025;-62
2022/05/24 06:49:32;;;;;;;22.88;6.53;;;;;;;;;;5062327;28;20024;-62
2022/05/24 06:51:59;;;;;;;20.63;7.07;;;;;;;;;;5062082;28;20024;-62
2022/05/24 06:54:25;;;;;;;15.05;6.68;;;;;;;;;;5060753;28;20028;-63
2022/05/24 06:56:51;;;;;;;15.50;7.72;;;;;;;;;;5061105;28;20017;-63
2022/05/24 07:04:46;;;;;;;20.27;6.63;;;;;;;;;;5063977;28;20047;-64
2022/05/24 07:07:13;;;;;;;13.38;6.20;;;;;;;;;;5063624;28;20073;-64
2022/05/24 07:09:40;;;;;;;16.30;5.75;;;;;;;;;;5069443;28;20454;-65
2022/05/24 07:12:06;;;;;;;21.27;7.03;;;;;;;;;;5065041;28;20553;-64
2022/05/24 07:14:36;;;;;;;14.73;6.80;;;;;;;;;;5066801;28;20033;-64
2022/05/24 07:17:02;;;;;;;14.23;5.13;;;;;;;;;;5065562;28;20052;-63
2022/05/24 07:19:29;;;;;;;18.35;5.90;;;;;;;;;;5062904;28;20505;-63
2022/05/24 07:21:55;;;;;;;18.75;5.22;;;;;;;;;;5068536;28;20062;-63
2022/05/24 07:24:21;;;;;;;13.95;6.43;;;;;;;;;;5059634;28;20052;-63
2022/05/24 07:26:47;;;;;;;17.80;7.07;;;;;;;;;;5059150;28;20029;-63
2022/05/24 07:29:13;;;;;;;13.70;7.03;;;;;;;;;;5062251;28;20035;-63
2022/05/24 07:31:39;;;;;;;17.50;7.88;;;;;;;;;;5060539;28;20533;-63
2022/05/24 07:34:06;;;;;;;15.23;8.00;;;;;;;;;;5064768;28;20031;-63
2022/05/24 07:36:32;;;;;;;17.58;8.52;;;;;;;;;;5057879;28;20647;-63
2022/05/24 07:39:01;;;;;;;16.55;8.23;;;;;;;;;;5063455;28;20703;-64
2022/05/24 07:46:56;;;;;;;17.35;7.18;;;;;;;;;;5064267;28;20973;-64
2022/05/24 07:49:23;;;;;;;19.70;6.38;;;;;;;;;;5063521;28;20063;-63
2022/05/24 07:51:49;;;;;;;14.40;6.13;;;;;;;;;;5061445;28;20025;-64
2022/05/24 07:54:15;;;;;;;11.65;6.05;;;;;;;;;;5064166;28;20116;-64
2022/05/24 07:56:44;;;;;;;14.75;6.25;;;;;;;;;;5061002;28;20028;-64
2022/05/24 07:59:10;;;;;;;23.20;5.97;;;;;;;;;;5062317;28;20466;-64
2022/05/24 08:01:36;;;;;;;8.57;4.75;;;;;;;;;;5060217;28;20448;-64
2022/05/24 08:04:03;;;;;;;13.57;4.75;;;;;;;;;;5064027;28;20029;-64
2022/05/24 08:06:29;;;;;;;10.68;4.80;;;;;;;;;;5059681;28;20032;-64
2022/05/24 08:08:55;;;;;;;15.85;4.43;;;;;;;;;;5058281;28;20032;-64
2022/05/24 08:11:21;;;;;;;12.90;4.93;;;;;;;;;;5062009;28;20150;-64
2022/05/24 08:13:48;;;;;;;8.35;4.55;;;;;;;;;;5068827;28;20055;-63
2022/05/24 08:16:14;;;;;;;8.15;3.60;;;;;;;;;;5058198;28;20665;-64
2022/05/24 08:18:40;;;;;;;9.15;4.28;;;;;;;;;;5059803;28;20044;-64
2022/05/24 08:21:06;;;;;;;8.13;3.67;;;;;;;;;;5062073;28;20033;-64
2022/05/24 08:23:33;;;;;;;8.68;3.45;;;;;;;;;;5063155;28;20085;-63
2022/05/24 08:26:00;;;;;;;7.55;3.33;;;;;;;;;;5058187;28;20029;-64
2022/05/24 08:28:26;;;;;;;9.23;4.40;;;;;;;;;;5064718;28;20143;-64
2022/05/24 08:30:55;;;;;;;13.43;5.13;;;;;;;;;;5065388;28;20150;-64
2022/05/24 08:33:22;;;;;;;10.48;4.55;;;;;;;;;;5061299;28;20108;-64
2022/05/24 08:35:48;;;;;;;9.98;5.28;;;;;;;;;;5060558;28;20048;-63
2022/05/24 08:38:15;;;;;;;9.25;3.88;;;;;;;;;;5063079;28;20111;-63
2022/05/24 08:40:43;;;;;;;9.27;4.18;;;;;;;;;;5064526;28;20039;-63
2022/05/24 08:43:27;;;;;;;11.98;3.88;;;;;;;;;;5059872;28;20032;-63
2022/05/24 08:48:47;;;;;;;7.93;3.75;;;;;;;;;;5067669;28;20075;-65
2022/05/24 08:51:32;;;;;;;17.02;5.13;;;;;;;;;;5061502;28;20041;-63
2022/05/24 08:54:00;;;;;;;9.32;3.72;;;;;;;;;;5061073;28;20028;-62
2022/05/24 08:56:29;;;;;;;15.25;3.45;;;;;;;;;;5060316;28;20120;-63
2022/05/24 08:58:57;;;;;;;9.88;3.25;;;;;;;;;;5058042;28;20143;-63
2022/05/24 09:01:25;;;;;;;14.93;4.32;;;;;;;;;;5062562;28;20927;-63
2022/05/24 09:03:51;;;;;;;10.77;3.20;;;;;;;;;;5058638;28;20335;-63
2022/05/24 09:06:24;;;;;;;12.02;3.10;;;;;;;;;;5066695;28;20050;-63
2022/05/24 09:09:06;;;;;;;8.73;3.17;;;;;;;;;;5064594;28;20089;-63
2022/05/24 09:11:46;;;;;;;10.88;3.30;;;;;;;;;;5065161;28;20089;-64
2022/05/24 09:14:24;;;;;;;9.30;3.27;;;;;;;;;;5064722;28;20032;-63
2022/05/24 09:16:59;;;;;;;13.65;3.22;;;;;;;;;;5059153;28;20119;-63
2022/05/24 09:19:26;;;;;;;8.90;3.13;;;;;;;;;;5061119;28;20051;-63
2022/05/24 09:21:53;;;;;;;6.28;2.58;;;;;;;;;;5061782;28;20031;-63
2022/05/24 09:24:22;;;;;;;9.43;4.28;;;;;;;;;;5056715;28;20027;-63
2022/05/24 09:27:07;;;;;;;9.80;2.60;;;;;;;;;;5061032;28;20052;-63
2022/05/24 09:29:33;;;;;;;12.40;2.70;;;;;;;;;;5061429;28;20040;-62
2022/05/24 09:32:04;;;;;;;9.95;2.78;;;;;;;;;;5064495;28;20391;-63
2022/05/24 09:34:33;;;;;;;7.00;2.65;;;;;;;;;;5059683;28;20119;-62
2022/05/24 09:37:01;;;;;;;13.13;2.53;;;;;;;;;;5057172;28;20028;-63
2022/05/24 09:39:41;;;;;;;10.27;2.85;;;;;;;;;;5060893;28;20195;-63
2022/05/24 09:42:06;;;;;;;12.95;3.22;;;;;;;;;;5057762;28;20021;-63
2022/05/24 09:44:46;;;;;;;9.27;2.70;;;;;;;;;;5056836;28;20028;-63
2022/05/24 09:47:24;;;;;;;9.67;2.33;;;;;;;;;;5059188;28;20543;-63
2022/05/24 09:49:50;;;;;;;11.52;2.67;;;;;;;;;;5058748;28;20255;-62
2022/05/24 09:52:17;;;;;;;9.00;2.10;;;;;;;;;;5061401;28;20021;-63
2022/05/24 09:54:54;;;;;;;10.10;2.58;;;;;;;;;;5058291;28;20107;-63
2022/05/24 09:57:25;;;;;;;8.13;2.85;;;;;;;;;;5063525;28;20032;-63
2022/05/24 09:59:59;;;;;;;6.95;2.53;;;;;;;;;;5059030;28;20021;-63
2022/05/24 10:02:30;;;;;;;8.50;2.50;;;;;;;;;;5059041;28;20509;-63
2022/05/24 10:04:58;;;;;;;8.57;2.13;;;;;;;;;;5061901;28;20482;-62
2022/05/24 10:07:25;;;;;;;11.82;2.47;;;;;;;;;;5060674;28;20025;-63
2022/05/24 10:10:07;;;;;;;3.35;2.00;;;;;;;;;;5057353;28;20393;-63
2022/05/24 10:12:33;;;;;;;9.02;2.13;;;;;;;;;;5065980;28;20040;-63
2022/05/24 10:15:00;;;;;;;9.13;2.70;;;;;;;;;;5066655;28;20048;-63
2022/05/24 10:17:38;;;;;;;15.55;2.33;;;;;;;;;;5063433;28;20029;-64
2022/05/24 10:20:10;;;;;;;8.48;1.90;;;;;;;;;;5058325;28;20021;-63
2022/05/24 10:22:46;;;;;;;9.50;2.17;;;;;;;;;;5060909;28;20499;-63
2022/05/24 10:25:18;;;;;;;11.57;1.83;;;;;;;;;;5058051;28;20064;-63
2022/05/24 10:28:04;;;;;;;7.03;1.52;;;;;;;;;;5057256;28;20134;-63
2022/05/24 10:30:46;;;;;;;5.65;1.83;;;;;;;;;;5058366;28;20055;-63
2022/05/24 10:39:11;;;;;;;10.15;2.22;;;;;;;;;;5057974;28;20489;-64
2022/05/24 10:41:42;;;;;;;9.40;2.17;;;;;;;;;;5058731;28;20031;-63
2022/05/24 10:44:18;;;;;;;9.25;2.42;;;;;;;;;;5061752;28;20039;-64
2022/05/24 10:46:46;;;;;;;7.82;1.70;;;;;;;;;;5059566;28;20493;-64
2022/05/24 10:49:16;;;;;;;6.90;1.88;;;;;;;;;;5056130;28;20111;-64
2022/05/24 10:51:48;;;;;;;5.13;1.65;;;;;;;;;;5058612;28;20024;-63
2022/05/24 10:54:14;;;;;;;4.82;1.50;;;;;;;;;;5059904;28;20391;-64
2022/05/24 10:56:44;;;;;;;5.55;1.92;;;;;;;;;;5058270;28;20463;-64
2022/05/24 10:59:20;;;;;;;5.20;1.48;;;;;;;;;;5061390;28;20791;-64
2022/05/24 11:01:50;;;;;;;4.57;1.60;;;;;;;;;;5065188;28;20029;-64
2022/05/24 11:04:21;;;;;;;6.90;1.60;;;;;;;;;;5064168;28;20037;-64
2022/05/24 11:06:55;;;;;;;7.60;1.63;;;;;;;;;;5065298;28;20028;-64
2022/05/24 11:09:23;;;;;;;6.20;1.88;;;;;;;;;;5061747;28;20108;-60
2022/05/24 11:11:49;;;;;;;9.02;1.58;;;;;;;;;;5064670;28;20147;-63
2022/05/24 11:14:30;;;;;;;10.93;1.92;;;;;;;;;;5062905;28;20025;-63
2022/05/24 11:16:56;;;;;;;10.65;1.92;;;;;;;;;;5037976;28;20635;-63
2022/05/24 11:19:38;;;;;;;6.32;1.80;;;;;;;;;;5059373;28;20021;-63
2022/05/24 11:22:22;;;;;;;3.17;1.02;;;;;;;;;;5062407;28;20132;-64
2022/05/24 11:24:57;;;;;;;3.03;1.35;;;;;;;;;;5059008;28;20606;-63
2022/05/24 11:27:28;;;;;;;6.88;1.75;;;;;;;;;;5062231;28;20028;-64
2022/05/24 11:29:56;;;;;;;4.47;1.05;;;;;;;;;;5056372;28;20021;-63
2022/05/24 11:32:34;;;;;;;3.03;0.95;;;;;;;;;;5060911;28;20024;-64
2022/05/24 11:35:06;;;;;;;4.57;1.35;;;;;;;;;;5063393;28;20059;-64
2022/05/24 11:37:37;;;;;;;5.85;1.40;;;;;;;;;;5057825;28;20107;-63
2022/05/24 11:40:22;;;;;;;4.88;0.85;;;;;;;;;;5056232;28;20028;-64
2022/05/24 11:42:48;;;;;;;5.72;1.15;;;;;;;;;;5060899;28;20096;-63
2022/05/24 11:45:29;;;;;;;7.72;1.65;;;;;;;;;;5063661;28;20029;-64
2022/05/24 11:47:57;;;;;;;7.93;1.27;;;;;;;;;;5069451;28;20119;-64
2022/05/24 11:50:32;;;;;;;3.45;1.02;;;;;;;;;;5061250;28;20063;-62
2022/05/24 11:53:07;;;;;;;4.78;1.20;;;;;;;;;;5060345;28;20021;-63
2022/05/24 11:55:49;;;;;;;7.85;1.10;;;;;;;;;;5056906;28;20050;-62
2022/05/24 11:58:21;;;;;;;4.38;1.08;;;;;;;;;;5064560;28;20029;-62
2022/05/24 12:01:02;;;;;;;6.88;0.95;;;;;;;;;;5059076;28;20025;-62
2022/05/24 12:09:18;;;;;;;3.30;0.80;;;;;;;;;;5059795;28;20032;-62
2022/05/24 12:11:45;;;;;;;5.57;1.42;;;;;;;;;;5060970;28;20025;-62
2022/05/24 12:14:19;;;;;;;3.42;0.73;;;;;;;;;;5060362;28;20075;-63
2022/05/24 12:16:46;;;;;;;2.42;0.80;;;;;;;;;;5064540;28;20024;-62
2022/05/24 12:19:32;;;;;;;3.97;0.90;;;;;;;;;;5058049;28;20024;-65
2022/05/24 12:21:59;;;;;;;5.40;0.98;;;;;;;;;;5060211;28;20032;-62
2022/05/24 12:24:25;;;;;;;3.83;1.10;;;;;;;;;;5060826;28;20025;-62
2022/05/24 12:27:09;;;;;;;4.43;0.93;;;;;;;;;;5063293;28;20035;-63
2022/05/24 12:29:35;;;;;;;8.02;0.90;;;;;;;;;;5062121;28;20140;-63
2022/05/24 12:32:05;;;;;;;7.05;0.90;;;;;;;;;;5058041;28;20031;-62
2022/05/24 12:34:31;;;;;;;;;;;;;;;;;;5060569;28;20047;-63
2022/05/24 12:36:58;;;;;;;5.97;1.10;;;;;;;;;;5059497;28;20370;-63
2022/05/24 12:39:26;;;;;;;3.83;0.85;;;;;;;;;;5058291;28;20574;-62
2022/05/24 12:41:56;;;;;;;1.85;0.80;;;;;;;;;;5059433;28;20114;-63
2022/05/24 12:44:32;;;;;;;4.55;0.95;;;;;;;;;;5059830;28;20070;-62
2022/05/24 12:47:11;;;;;;;2.78;0.73;;;;;;;;;;5060583;28;20036;-62
2022/05/24 12:49:51;;;;;;;3.85;0.95;;;;;;;;;;5058668;28;20139;-63
2022/05/24 12:52:22;;;;;;;3.15;0.93;;;;;;;;;;5062161;28;20129;-62
2022/05/24 12:54:49;;;;;;;2.30;0.82;;;;;;;;;;5060963;28;20055;-62
2022/05/24 12:57:17;;;;;;;5.53;0.80;;;;;;;;;;5060475;28;20043;-64
2022/05/24 12:59:50;;;;;;;5.82;0.90;;;;;;;;;;5060828;28;20031;-63
2022/05/24 13:02:34;;;;;;;5.43;1.10;;;;;;;;;;5061296;28;20111;-63
2022/05/24 13:05:13;;;;;;;4.95;0.60;;;;;;;;;;5062246;28;20036;-63
2022/05/24 13:07:39;;;;;;;2.17;0.70;;;;;;;;;;5060580;28;20033;-63
2022/05/24 13:10:26;;;;;;;3.22;0.77;;;;;;;;;;5063018;28;20078;-63
2022/05/24 13:13:06;;;;;;;2.75;0.70;;;;;;;;;;5059113;28;20059;-63
2022/05/24 13:15:32;;;;;;;5.85;1.10;;;;;;;;;;5063740;28;20552;-63
2022/05/24 13:18:02;;;;;;;3.88;1.00;;;;;;;;;;5058868;28;20100;-58
2022/05/24 13:20:51;;;;;;;2.00;0.60;;;;;;;;;;5059547;28;20020;-62
2022/05/24 13:23:20;;;;;;;33.72;2.60;;;;;;;;;;5054334;28;20121;-64
2022/05/24 13:25:49;;;;;;;18.67;2.00;;;;;;;;;;5060288;28;20039;-64
2022/05/24 13:28:31;;;;;;;12.77;1.45;;;;;;;;;;5067176;28;20372;-63
2022/05/24 13:33:48;;;;;;;19.40;2.00;;;;;;;;;;5063376;28;20174;-63
2022/05/24 13:36:20;;;;;;;6.20;1.38;;;;;;;;;;5060263;28;20032;-63
2022/05/24 13:38:49;;;;;;;11.68;1.40;;;;;;;;;;5054350;28;20021;-63
2022/05/24 13:41:26;;;;;;;7.72;1.40;;;;;;;;;;5057938;28;20493;-63
2022/05/24 13:44:06;;;;;;;7.38;1.10;;;;;;;;;;5042421;28;20594;-63
2022/05/24 13:46:46;;;;;;;10.13;1.30;;;;;;;;;;5059308;28;20496;-63
2022/05/24 13:49:25;;;;;;;7.25;1.05;;;;;;;;;;5055270;28;20368;-63
2022/05/24 13:51:51;;;;;;;3.60;1.15;;;;;;;;;;5057463;28;20056;-63
2022/05/24 13:54:33;;;;;;;16.35;1.77;;;;;;;;;;5056999;28;20123;-63
2022/05/24 13:57:07;;;;;;;3.42;0.95;;;;;;;;;;5060060;28;20033;-63
2022/05/24 13:59:33;;;;;;;16.50;2.17;;;;;;;;;;5055694;28;20056;-63
2022/05/24 14:02:13;;;;;;;5.97;1.30;;;;;;;;;;5061933;28;20021;-62
2022/05/24 14:04:41;;;;;;;12.40;1.95;;;;;;;;;;5059100;28;20021;-63
2022/05/24 14:07:10;;;;;;;14.32;2.60;;;;;;;;;;5065647;28;20024;-63
2022/05/24 14:09:36;;;;;;;14.27;2.08;;;;;;;;;;5064044;28;20112;-63
2022/05/24 14:12:04;;;;;;;6.88;1.70;;;;;;;;;;5067268;28;20032;-63
2022/05/24 14:14:31;;;;;;;5.88;1.55;;;;;;;;;;5061990;28;20024;-63
2022/05/24 14:16:57;;;;;;;7.65;1.30;;;;;;;;;;5061918;28;20507;-62
2022/05/24 14:19:23;;;;;;;16.00;1.83;;;;;;;;;;5058877;28;20052;-63
2022/05/24 14:21:54;;;;;;;8.10;1.92;;;;;;;;;;5059731;28;20099;-63
2022/05/24 14:24:21;;;;;;;6.57;1.98;;;;;;;;;;5058834;28;20118;-63
2022/05/24 14:26:49;;;;;;;5.70;1.98;;;;;;;;;;5062225;28;20444;-63
2022/05/24 14:29:15;;;;;;;5.32;1.63;;;;;;;;;;5057506;28;20032;-63
2022/05/24 14:31:42;;;;;;;7.50;2.00;;;;;;;;;;5057110;28;20713;-63
2022/05/24 14:34:11;;;;;;;4.38;1.58;;;;;;;;;;5063751;28;20059;-62
2022/05/24 14:36:37;;;;;;;8.60;1.65;;;;;;;;;;5063994;28;20020;-63
2022/05/24 14:39:04;;;;;;;29.27;3.55;;;;;;;;;;5068527;28;20063;-63
2022/05/24 14:41:31;;;;;;;11.00;1.83;;;;;;;;;;5061339;28;20061;-63
2022/05/24 14:44:00;;;;;;;6.93;1.90;;;;;;;;;;5066839;28;20132;-63
2022/05/24 14:46:30;;;;;;;12.57;1.75;;;;;;;;;;5066335;28;20036;-63
2022/05/24 14:48:56;;;;;;;5.78;1.90;;;;;;;;;;5060967;28;20075;-64
2022/05/24 14:51:25;;;;;;;6.75;2.10;;;;;;;;;;5065207;28;20032;-64
2022/05/24 14:53:51;;;;;;;8.38;2.03;;;;;;;;;;5061772;28;20017;-63
2022/05/24 14:56:17;;;;;;;5.80;1.80;;;;;;;;;;5063323;28;20035;-63
2022/05/24 14:58:43;;;;;;;4.85;2.00;;;;;;;;;;5062594;28;20482;-64
2022/05/24 15:01:09;;;;;;;4.32;1.55;;;;;;;;;;5060846;28;20055;-63
2022/05/24 15:03:35;;;;;;;5.00;1.40;;;;;;;;;;5063004;28;20943;-64
2022/05/24 15:06:01;;;;;;;3.13;1.13;;;;;;;;;;5059816;28;20037;-64
2022/05/24 15:16:42;;;;;;;7.45;1.00;;;;;;;;;;5064999;28;20126;-64
2022/05/24 15:19:08;;;;;;;2.90;1.02;;;;;;;;;;5062195;28;20487;-63
2022/05/24 15:21:36;;;;;;;5.60;1.70;;;;;;;;;;5059394;28;20164;-64
2022/05/24 15:24:05;;;;;;;3.67;1.30;;;;;;;;;;5062663;28;20750;-63
2022/05/24 15:26:36;;;;;;;2.15;0.75;;;;;;;;;;5059483;28;20044;-64
2022/05/24 15:29:03;;;;;;;4.90;0.80;;;;;;;;;;5064765;28;20016;-64
2022/05/24 15:31:29;;;;;;;3.28;0.90;;;;;;;;;;5059668;28;20024;-64
2022/05/24 15:33:55;;;;;;;2.70;1.13;;;;;;;;;;5062201;28;20021;-64
2022/05/24 15:36:22;;;;;;;2.78;1.13;;;;;;;;;;5061747;28;20098;-64
2022/05/24 15:38:48;;;;;;;3.42;1.15;;;;;;;;;;5063451;28;20024;-64
2022/05/24 15:41:20;;;;;;;2.92;1.30;;;;;;;;;;5063156;28;20025;-63
2022/05/24 15:43:46;;;;;;;6.78;1.67;;;;;;;;;;5062839;28;20074;-64